sensor_id;sensor_type;location;lat;lon;timestamp;temperature;humidity
54034;DHT22;39952;40.122;18.294;2022-09-03T00:01:45;23.90;66.00
54034;DHT22;39952;40.122;18.294;2022-09-03T00:05:03;23.80;66.40
54034;DHT22;39952;40.122;18.294;2022-09-03T00:08:16;23.80;66.50
54034;DHT22;39952;40.122;18.294;2022-09-03T00:11:32;23.70;67.20
54034;DHT22;39952;40.122;18.294;2022-09-03T00:14:46;23.50;67.30
54034;DHT22;39952;40.122;18.294;2022-09-03T00:17:59;23.60;67.00
54034;DHT22;39952;40.122;18.294;2022-09-03T00:21:10;23.60;66.70
54034;DHT22;39952;40.122;18.294;2022-09-03T00:24:23;23.70;67.00
54034;DHT22;39952;40.122;18.294;2022-09-03T00:27:35;23.70;67.00
54034;DHT22;39952;40.122;18.294;2022-09-03T00:30:46;23.70;66.70
54034;DHT22;39952;40.122;18.294;2022-09-03T00:34:05;23.80;66.50
54034;DHT22;39952;40.122;18.294;2022-09-03T00:37:13;23.70;66.60
54034;DHT22;39952;40.122;18.294;2022-09-03T00:40:52;23.80;66.50
54034;DHT22;39952;40.122;18.294;2022-09-03T00:44:22;23.70;66.40
54034;DHT22;39952;40.122;18.294;2022-09-03T00:47:40;23.70;66.30
54034;DHT22;39952;40.122;18.294;2022-09-03T00:51:03;23.70;66.60
54034;DHT22;39952;40.122;18.294;2022-09-03T00:54:19;23.50;66.90
54034;DHT22;39952;40.122;18.294;2022-09-03T00:57:40;23.60;67.10
54034;DHT22;39952;40.122;18.294;2022-09-03T01:00:51;23.70;66.20
54034;DHT22;39952;40.122;18.294;2022-09-03T01:04:05;23.70;66.70
54034;DHT22;39952;40.122;18.294;2022-09-03T01:07:22;23.90;65.90
54034;DHT22;39952;40.122;18.294;2022-09-03T01:10:50;24.00;65.80
54034;DHT22;39952;40.122;18.294;2022-09-03T01:14:08;24.10;65.10
54034;DHT22;39952;40.122;18.294;2022-09-03T01:17:27;23.90;65.60
54034;DHT22;39952;40.122;18.294;2022-09-03T01:20:44;23.90;65.50
54034;DHT22;39952;40.122;18.294;2022-09-03T01:27:44;23.80;65.40
54034;DHT22;39952;40.122;18.294;2022-09-03T01:30:57;23.70;65.90
54034;DHT22;39952;40.122;18.294;2022-09-03T01:34:17;23.50;66.50
54034;DHT22;39952;40.122;18.294;2022-09-03T01:37:33;23.50;66.70
54034;DHT22;39952;40.122;18.294;2022-09-03T01:40:50;23.70;66.40
54034;DHT22;39952;40.122;18.294;2022-09-03T01:44:04;23.70;66.10
54034;DHT22;39952;40.122;18.294;2022-09-03T01:47:25;23.50;67.00
54034;DHT22;39952;40.122;18.294;2022-09-03T01:50:43;23.70;66.30
54034;DHT22;39952;40.122;18.294;2022-09-03T01:54:25;23.70;66.00
54034;DHT22;39952;40.122;18.294;2022-09-03T01:57:45;23.60;66.60
54034;DHT22;39952;40.122;18.294;2022-09-03T02:00:58;23.50;66.70
54034;DHT22;39952;40.122;18.294;2022-09-03T02:04:17;23.50;67.10
54034;DHT22;39952;40.122;18.294;2022-09-03T02:07:29;23.40;67.50
54034;DHT22;39952;40.122;18.294;2022-09-03T02:10:41;23.50;66.90
54034;DHT22;39952;40.122;18.294;2022-09-03T02:13:51;23.30;67.80
54034;DHT22;39952;40.122;18.294;2022-09-03T02:16:59;23.30;67.50
54034;DHT22;39952;40.122;18.294;2022-09-03T02:20:11;23.30;67.60
54034;DHT22;39952;40.122;18.294;2022-09-03T02:23:23;23.30;67.50
54034;DHT22;39952;40.122;18.294;2022-09-03T02:26:30;23.30;67.80
54034;DHT22;39952;40.122;18.294;2022-09-03T02:29:37;23.30;68.10
54034;DHT22;39952;40.122;18.294;2022-09-03T02:32:43;23.20;68.10
54034;DHT22;39952;40.122;18.294;2022-09-03T02:35:52;23.20;68.40
54034;DHT22;39952;40.122;18.294;2022-09-03T02:38:59;23.20;68.50
54034;DHT22;39952;40.122;18.294;2022-09-03T02:42:06;23.20;68.60
54034;DHT22;39952;40.122;18.294;2022-09-03T02:45:21;23.30;68.50
54034;DHT22;39952;40.122;18.294;2022-09-03T02:48:30;23.30;68.40
54034;DHT22;39952;40.122;18.294;2022-09-03T02:51:40;23.50;68.20
54034;DHT22;39952;40.122;18.294;2022-09-03T02:54:47;23.80;66.90
54034;DHT22;39952;40.122;18.294;2022-09-03T02:57:54;23.80;67.10
54034;DHT22;39952;40.122;18.294;2022-09-03T03:01:01;23.80;67.00
54034;DHT22;39952;40.122;18.294;2022-09-03T03:04:08;23.70;67.00
54034;DHT22;39952;40.122;18.294;2022-09-03T03:07:16;23.70;67.40
54034;DHT22;39952;40.122;18.294;2022-09-03T03:10:23;23.70;67.90
54034;DHT22;39952;40.122;18.294;2022-09-03T03:13:31;23.80;67.20
54034;DHT22;39952;40.122;18.294;2022-09-03T03:16:38;23.90;66.60
54034;DHT22;39952;40.122;18.294;2022-09-03T03:19:45;24.10;66.60
54034;DHT22;39952;40.122;18.294;2022-09-03T03:22:53;24.00;66.10
54034;DHT22;39952;40.122;18.294;2022-09-03T03:26:00;23.90;66.90
54034;DHT22;39952;40.122;18.294;2022-09-03T03:29:13;23.90;67.10
54034;DHT22;39952;40.122;18.294;2022-09-03T03:32:20;23.90;67.20
54034;DHT22;39952;40.122;18.294;2022-09-03T03:35:27;24.00;66.60
54034;DHT22;39952;40.122;18.294;2022-09-03T03:38:36;24.00;66.30
54034;DHT22;39952;40.122;18.294;2022-09-03T03:41:43;24.00;66.90
54034;DHT22;39952;40.122;18.294;2022-09-03T03:44:50;24.10;66.10
54034;DHT22;39952;40.122;18.294;2022-09-03T03:47:57;24.30;65.90
54034;DHT22;39952;40.122;18.294;2022-09-03T03:51:06;24.40;65.40
54034;DHT22;39952;40.122;18.294;2022-09-03T03:54:14;24.40;65.30
54034;DHT22;39952;40.122;18.294;2022-09-03T03:57:20;24.40;65.00
54034;DHT22;39952;40.122;18.294;2022-09-03T04:00:27;24.30;65.20
54034;DHT22;39952;40.122;18.294;2022-09-03T04:03:35;24.30;65.30
54034;DHT22;39952;40.122;18.294;2022-09-03T04:06:41;24.20;65.60
54034;DHT22;39952;40.122;18.294;2022-09-03T04:09:50;24.00;66.10
54034;DHT22;39952;40.122;18.294;2022-09-03T04:12:57;24.10;65.90
54034;DHT22;39952;40.122;18.294;2022-09-03T04:16:05;24.20;65.90
54034;DHT22;39952;40.122;18.294;2022-09-03T04:19:12;24.30;65.30
54034;DHT22;39952;40.122;18.294;2022-09-03T04:22:19;24.30;65.60
54034;DHT22;39952;40.122;18.294;2022-09-03T04:25:30;24.10;65.20
54034;DHT22;39952;40.122;18.294;2022-09-03T04:28:37;24.10;65.70
54034;DHT22;39952;40.122;18.294;2022-09-03T04:31:43;24.00;65.90
54034;DHT22;39952;40.122;18.294;2022-09-03T04:35:10;23.80;66.10
54034;DHT22;39952;40.122;18.294;2022-09-03T04:38:16;23.80;66.70
54034;DHT22;39952;40.122;18.294;2022-09-03T04:41:26;23.80;66.40
54034;DHT22;39952;40.122;18.294;2022-09-03T04:44:33;23.70;67.50
54034;DHT22;39952;40.122;18.294;2022-09-03T04:47:42;23.80;66.80
54034;DHT22;39952;40.122;18.294;2022-09-03T04:50:50;23.80;67.10
54034;DHT22;39952;40.122;18.294;2022-09-03T04:53:58;23.90;66.60
54034;DHT22;39952;40.122;18.294;2022-09-03T04:57:07;24.30;65.70
54034;DHT22;39952;40.122;18.294;2022-09-03T05:00:15;24.50;65.20
54034;DHT22;39952;40.122;18.294;2022-09-03T05:03:22;24.80;64.50
54034;DHT22;39952;40.122;18.294;2022-09-03T05:06:30;25.00;63.40
54034;DHT22;39952;40.122;18.294;2022-09-03T05:09:37;25.30;61.90
54034;DHT22;39952;40.122;18.294;2022-09-03T05:12:46;25.40;61.40
54034;DHT22;39952;40.122;18.294;2022-09-03T05:15:58;25.40;61.50
54034;DHT22;39952;40.122;18.294;2022-09-03T05:19:06;25.50;61.50
54034;DHT22;39952;40.122;18.294;2022-09-03T05:22:14;25.70;61.40
54034;DHT22;39952;40.122;18.294;2022-09-03T05:25:25;25.90;60.70
54034;DHT22;39952;40.122;18.294;2022-09-03T05:28:34;25.80;61.00
54034;DHT22;39952;40.122;18.294;2022-09-03T05:31:40;26.00;60.90
54034;DHT22;39952;40.122;18.294;2022-09-03T05:34:47;26.20;60.40
54034;DHT22;39952;40.122;18.294;2022-09-03T05:37:54;26.30;59.70
54034;DHT22;39952;40.122;18.294;2022-09-03T05:41:02;26.50;59.40
54034;DHT22;39952;40.122;18.294;2022-09-03T05:44:12;26.50;59.50
54034;DHT22;39952;40.122;18.294;2022-09-03T05:47:18;26.70;59.00
54034;DHT22;39952;40.122;18.294;2022-09-03T05:50:25;26.70;59.20
54034;DHT22;39952;40.122;18.294;2022-09-03T05:53:33;26.90;58.80
54034;DHT22;39952;40.122;18.294;2022-09-03T05:56:40;26.90;58.80
54034;DHT22;39952;40.122;18.294;2022-09-03T05:59:49;26.90;58.90
54034;DHT22;39952;40.122;18.294;2022-09-03T06:02:55;27.10;58.40
54034;DHT22;39952;40.122;18.294;2022-09-03T06:06:02;27.20;58.10
54034;DHT22;39952;40.122;18.294;2022-09-03T06:09:12;27.30;57.70
54034;DHT22;39952;40.122;18.294;2022-09-03T06:12:21;27.40;57.80
54034;DHT22;39952;40.122;18.294;2022-09-03T06:15:29;27.50;57.60
54034;DHT22;39952;40.122;18.294;2022-09-03T06:18:36;27.50;57.70
54034;DHT22;39952;40.122;18.294;2022-09-03T06:21:44;27.50;57.70
54034;DHT22;39952;40.122;18.294;2022-09-03T06:24:51;27.60;57.80
54034;DHT22;39952;40.122;18.294;2022-09-03T06:27:58;27.80;57.60
54034;DHT22;39952;40.122;18.294;2022-09-03T06:31:10;27.70;57.40
54034;DHT22;39952;40.122;18.294;2022-09-03T06:34:17;27.80;56.70
54034;DHT22;39952;40.122;18.294;2022-09-03T06:37:23;27.90;56.70
54034;DHT22;39952;40.122;18.294;2022-09-03T06:40:30;27.70;57.00
54034;DHT22;39952;40.122;18.294;2022-09-03T06:43:39;27.80;57.20
54034;DHT22;39952;40.122;18.294;2022-09-03T06:46:48;27.60;57.40
54034;DHT22;39952;40.122;18.294;2022-09-03T06:49:57;27.70;57.80
54034;DHT22;39952;40.122;18.294;2022-09-03T06:53:04;27.50;58.30
54034;DHT22;39952;40.122;18.294;2022-09-03T06:56:13;27.70;58.00
54034;DHT22;39952;40.122;18.294;2022-09-03T06:59:20;28.10;56.50
54034;DHT22;39952;40.122;18.294;2022-09-03T07:02:28;28.10;56.60
54034;DHT22;39952;40.122;18.294;2022-09-03T07:05:35;28.10;56.60
54034;DHT22;39952;40.122;18.294;2022-09-03T07:08:43;28.10;56.70
54034;DHT22;39952;40.122;18.294;2022-09-03T07:11:50;28.20;56.20
54034;DHT22;39952;40.122;18.294;2022-09-03T07:14:57;28.40;55.80
54034;DHT22;39952;40.122;18.294;2022-09-03T07:18:06;28.40;56.10
54034;DHT22;39952;40.122;18.294;2022-09-03T07:21:14;28.50;55.20
54034;DHT22;39952;40.122;18.294;2022-09-03T07:24:21;28.50;55.30
54034;DHT22;39952;40.122;18.294;2022-09-03T07:27:28;28.20;56.40
54034;DHT22;39952;40.122;18.294;2022-09-03T07:30:35;28.20;56.10
54034;DHT22;39952;40.122;18.294;2022-09-03T07:33:44;28.30;55.70
54034;DHT22;39952;40.122;18.294;2022-09-03T07:36:50;28.20;56.10
54034;DHT22;39952;40.122;18.294;2022-09-03T07:39:57;28.30;55.10
54034;DHT22;39952;40.122;18.294;2022-09-03T07:43:04;28.10;55.40
54034;DHT22;39952;40.122;18.294;2022-09-03T07:46:11;28.20;55.30
54034;DHT22;39952;40.122;18.294;2022-09-03T07:49:20;28.30;54.80
54034;DHT22;39952;40.122;18.294;2022-09-03T07:52:27;28.00;53.80
54034;DHT22;39952;40.122;18.294;2022-09-03T07:55:34;28.00;53.30
54034;DHT22;39952;40.122;18.294;2022-09-03T07:58:41;28.40;53.70
54034;DHT22;39952;40.122;18.294;2022-09-03T08:01:48;28.40;53.80
54034;DHT22;39952;40.122;18.294;2022-09-03T08:04:56;28.40;54.40
54034;DHT22;39952;40.122;18.294;2022-09-03T08:08:03;28.60;52.90
54034;DHT22;39952;40.122;18.294;2022-09-03T08:11:11;28.80;53.20
54034;DHT22;39952;40.122;18.294;2022-09-03T08:14:18;28.70;50.40
54034;DHT22;39952;40.122;18.294;2022-09-03T08:17:26;28.50;52.60
54034;DHT22;39952;40.122;18.294;2022-09-03T08:20:35;28.70;52.70
54034;DHT22;39952;40.122;18.294;2022-09-03T08:23:44;28.90;52.30
54034;DHT22;39952;40.122;18.294;2022-09-03T08:26:52;29.10;51.70
54034;DHT22;39952;40.122;18.294;2022-09-03T08:29:58;29.30;50.70
54034;DHT22;39952;40.122;18.294;2022-09-03T08:33:06;28.90;51.30
54034;DHT22;39952;40.122;18.294;2022-09-03T08:36:17;29.00;51.50
54034;DHT22;39952;40.122;18.294;2022-09-03T08:39:25;29.00;51.80
54034;DHT22;39952;40.122;18.294;2022-09-03T08:42:41;29.00;50.70
54034;DHT22;39952;40.122;18.294;2022-09-03T08:45:50;28.80;51.30
54034;DHT22;39952;40.122;18.294;2022-09-03T08:48:57;28.70;51.20
54034;DHT22;39952;40.122;18.294;2022-09-03T08:52:17;28.80;51.70
54034;DHT22;39952;40.122;18.294;2022-09-03T08:55:28;29.30;50.40
54034;DHT22;39952;40.122;18.294;2022-09-03T08:58:36;29.60;49.60
54034;DHT22;39952;40.122;18.294;2022-09-03T09:01:50;29.80;48.20
54034;DHT22;39952;40.122;18.294;2022-09-03T09:05:03;29.80;47.40
54034;DHT22;39952;40.122;18.294;2022-09-03T09:08:19;30.10;47.00
54034;DHT22;39952;40.122;18.294;2022-09-03T09:11:43;30.90;44.00
54034;DHT22;39952;40.122;18.294;2022-09-03T09:15:05;33.00;39.30
54034;DHT22;39952;40.122;18.294;2022-09-03T09:18:20;34.20;37.70
54034;DHT22;39952;40.122;18.294;2022-09-03T09:21:32;37.10;32.90
54034;DHT22;39952;40.122;18.294;2022-09-03T09:24:44;38.80;30.10
54034;DHT22;39952;40.122;18.294;2022-09-03T09:27:57;39.00;29.20
54034;DHT22;39952;40.122;18.294;2022-09-03T09:31:06;40.40;27.40
54034;DHT22;39952;40.122;18.294;2022-09-03T09:34:16;43.00;24.60
54034;DHT22;39952;40.122;18.294;2022-09-03T09:37:23;44.00;22.20
54034;DHT22;39952;40.122;18.294;2022-09-03T09:40:33;43.10;23.30
54034;DHT22;39952;40.122;18.294;2022-09-03T09:43:40;41.80;25.30
54034;DHT22;39952;40.122;18.294;2022-09-03T09:46:47;42.50;24.90
54034;DHT22;39952;40.122;18.294;2022-09-03T09:49:58;43.30;23.70
54034;DHT22;39952;40.122;18.294;2022-09-03T09:53:10;42.40;24.00
54034;DHT22;39952;40.122;18.294;2022-09-03T09:56:23;40.80;25.80
54034;DHT22;39952;40.122;18.294;2022-09-03T09:59:31;40.70;26.40
54034;DHT22;39952;40.122;18.294;2022-09-03T10:02:39;42.40;24.00
54034;DHT22;39952;40.122;18.294;2022-09-03T10:05:57;43.80;22.90
54034;DHT22;39952;40.122;18.294;2022-09-03T10:09:07;43.70;23.00
54034;DHT22;39952;40.122;18.294;2022-09-03T10:12:21;43.50;23.10
54034;DHT22;39952;40.122;18.294;2022-09-03T10:15:36;42.60;23.40
54034;DHT22;39952;40.122;18.294;2022-09-03T10:18:50;40.80;25.90
54034;DHT22;39952;40.122;18.294;2022-09-03T10:22:03;40.30;26.30
54034;DHT22;39952;40.122;18.294;2022-09-03T10:25:14;40.20;26.30
54034;DHT22;39952;40.122;18.294;2022-09-03T10:28:25;40.40;26.30
54034;DHT22;39952;40.122;18.294;2022-09-03T10:31:44;41.10;25.20
54034;DHT22;39952;40.122;18.294;2022-09-03T10:35:03;42.50;23.60
54034;DHT22;39952;40.122;18.294;2022-09-03T10:38:19;40.90;24.80
54034;DHT22;39952;40.122;18.294;2022-09-03T10:41:40;38.90;26.60
54034;DHT22;39952;40.122;18.294;2022-09-03T10:45:00;37.00;29.10
54034;DHT22;39952;40.122;18.294;2022-09-03T10:51:50;35.40;32.80
54034;DHT22;39952;40.122;18.294;2022-09-03T10:55:17;35.40;32.70
54034;DHT22;39952;40.122;18.294;2022-09-03T10:58:38;34.80;34.40
54034;DHT22;39952;40.122;18.294;2022-09-03T11:01:56;34.10;35.30
54034;DHT22;39952;40.122;18.294;2022-09-03T11:05:08;34.10;35.30
54034;DHT22;39952;40.122;18.294;2022-09-03T11:08:24;33.40;35.90
54034;DHT22;39952;40.122;18.294;2022-09-03T11:11:36;33.30;35.40
54034;DHT22;39952;40.122;18.294;2022-09-03T11:14:46;32.80;36.20
54034;DHT22;39952;40.122;18.294;2022-09-03T11:18:03;32.70;35.80
54034;DHT22;39952;40.122;18.294;2022-09-03T11:21:15;32.70;36.20
54034;DHT22;39952;40.122;18.294;2022-09-03T11:24:25;33.00;34.90
54034;DHT22;39952;40.122;18.294;2022-09-03T11:27:48;33.60;34.60
54034;DHT22;39952;40.122;18.294;2022-09-03T11:31:21;33.50;34.50
54034;DHT22;39952;40.122;18.294;2022-09-03T11:34:32;33.80;33.90
54034;DHT22;39952;40.122;18.294;2022-09-03T11:37:53;33.70;33.70
54034;DHT22;39952;40.122;18.294;2022-09-03T11:41:10;33.30;33.80
54034;DHT22;39952;40.122;18.294;2022-09-03T11:44:19;32.80;34.60
54034;DHT22;39952;40.122;18.294;2022-09-03T11:47:38;33.00;34.30
54034;DHT22;39952;40.122;18.294;2022-09-03T11:50:54;33.10;33.90
54034;DHT22;39952;40.122;18.294;2022-09-03T11:54:03;33.30;34.00
54034;DHT22;39952;40.122;18.294;2022-09-03T11:57:12;33.10;34.30
54034;DHT22;39952;40.122;18.294;2022-09-03T12:00:20;33.30;34.00
54034;DHT22;39952;40.122;18.294;2022-09-03T12:03:36;32.90;33.90
54034;DHT22;39952;40.122;18.294;2022-09-03T12:07:28;33.20;33.60
54034;DHT22;39952;40.122;18.294;2022-09-03T12:10:50;33.70;33.10
54034;DHT22;39952;40.122;18.294;2022-09-03T12:14:03;33.50;32.80
54034;DHT22;39952;40.122;18.294;2022-09-03T12:17:25;33.70;32.80
54034;DHT22;39952;40.122;18.294;2022-09-03T12:20:33;34.10;32.60
54034;DHT22;39952;40.122;18.294;2022-09-03T12:23:43;34.30;32.30
54034;DHT22;39952;40.122;18.294;2022-09-03T12:26:50;34.30;32.50
54034;DHT22;39952;40.122;18.294;2022-09-03T12:29:59;34.40;31.90
54034;DHT22;39952;40.122;18.294;2022-09-03T12:33:07;34.60;32.10
54034;DHT22;39952;40.122;18.294;2022-09-03T12:36:15;34.40;32.70
54034;DHT22;39952;40.122;18.294;2022-09-03T12:39:25;34.70;32.20
54034;DHT22;39952;40.122;18.294;2022-09-03T12:42:52;33.80;33.80
54034;DHT22;39952;40.122;18.294;2022-09-03T12:46:22;34.20;33.60
54034;DHT22;39952;40.122;18.294;2022-09-03T12:49:37;33.50;34.70
54034;DHT22;39952;40.122;18.294;2022-09-03T12:52:46;33.90;34.30
54034;DHT22;39952;40.122;18.294;2022-09-03T12:55:56;33.90;34.40
54034;DHT22;39952;40.122;18.294;2022-09-03T12:59:09;33.40;34.70
54034;DHT22;39952;40.122;18.294;2022-09-03T13:02:20;34.20;34.60
54034;DHT22;39952;40.122;18.294;2022-09-03T13:05:32;34.80;33.30
54034;DHT22;39952;40.122;18.294;2022-09-03T13:08:44;35.20;32.10
54034;DHT22;39952;40.122;18.294;2022-09-03T13:11:52;34.40;33.00
54034;DHT22;39952;40.122;18.294;2022-09-03T13:15:17;33.90;34.20
54034;DHT22;39952;40.122;18.294;2022-09-03T13:18:26;34.00;34.30
54034;DHT22;39952;40.122;18.294;2022-09-03T13:21:41;34.20;34.20
54034;DHT22;39952;40.122;18.294;2022-09-03T13:25:01;34.50;33.90
54034;DHT22;39952;40.122;18.294;2022-09-03T13:28:22;35.10;33.10
54034;DHT22;39952;40.122;18.294;2022-09-03T13:31:35;35.60;31.90
54034;DHT22;39952;40.122;18.294;2022-09-03T13:34:49;36.10;31.30
54034;DHT22;39952;40.122;18.294;2022-09-03T13:38:06;35.80;31.10
54034;DHT22;39952;40.122;18.294;2022-09-03T13:41:17;35.80;31.70
54034;DHT22;39952;40.122;18.294;2022-09-03T13:44:41;35.20;32.20
54034;DHT22;39952;40.122;18.294;2022-09-03T13:47:55;35.50;32.10
54034;DHT22;39952;40.122;18.294;2022-09-03T13:51:24;34.70;34.50
54034;DHT22;39952;40.122;18.294;2022-09-03T13:54:36;35.00;36.70
54034;DHT22;39952;40.122;18.294;2022-09-03T13:57:54;34.40;37.90
54034;DHT22;39952;40.122;18.294;2022-09-03T14:01:10;33.70;39.90
54034;DHT22;39952;40.122;18.294;2022-09-03T14:04:32;33.80;39.90
54034;DHT22;39952;40.122;18.294;2022-09-03T14:07:53;33.60;40.10
54034;DHT22;39952;40.122;18.294;2022-09-03T14:11:18;32.60;42.10
54034;DHT22;39952;40.122;18.294;2022-09-03T14:14:36;32.20;42.30
54034;DHT22;39952;40.122;18.294;2022-09-03T14:17:51;32.30;42.60
54034;DHT22;39952;40.122;18.294;2022-09-03T14:21:04;32.40;43.80
54034;DHT22;39952;40.122;18.294;2022-09-03T14:24:16;32.40;44.20
54034;DHT22;39952;40.122;18.294;2022-09-03T14:27:27;31.80;45.50
54034;DHT22;39952;40.122;18.294;2022-09-03T14:30:40;31.90;45.50
54034;DHT22;39952;40.122;18.294;2022-09-03T14:33:57;31.80;45.70
54034;DHT22;39952;40.122;18.294;2022-09-03T14:37:18;32.20;44.70
54034;DHT22;39952;40.122;18.294;2022-09-03T14:40:38;32.30;44.40
54034;DHT22;39952;40.122;18.294;2022-09-03T14:44:01;31.90;44.50
54034;DHT22;39952;40.122;18.294;2022-09-03T14:47:25;31.80;45.10
54034;DHT22;39952;40.122;18.294;2022-09-03T14:50:56;31.80;45.40
54034;DHT22;39952;40.122;18.294;2022-09-03T14:58:00;31.30;46.90
54034;DHT22;39952;40.122;18.294;2022-09-03T15:01:12;30.70;48.40
54034;DHT22;39952;40.122;18.294;2022-09-03T15:04:47;30.80;48.20
54034;DHT22;39952;40.122;18.294;2022-09-03T15:08:01;30.60;48.40
54034;DHT22;39952;40.122;18.294;2022-09-03T15:11:16;30.30;48.90
54034;DHT22;39952;40.122;18.294;2022-09-03T15:14:33;30.40;48.60
54034;DHT22;39952;40.122;18.294;2022-09-03T15:17:57;30.40;48.40
54034;DHT22;39952;40.122;18.294;2022-09-03T15:21:17;30.20;47.80
54034;DHT22;39952;40.122;18.294;2022-09-03T15:24:35;30.20;46.80
54034;DHT22;39952;40.122;18.294;2022-09-03T15:28:03;30.00;47.40
54034;DHT22;39952;40.122;18.294;2022-09-03T15:31:18;30.00;47.20
54034;DHT22;39952;40.122;18.294;2022-09-03T15:34:52;30.10;46.80
54034;DHT22;39952;40.122;18.294;2022-09-03T15:38:04;30.00;45.20
54034;DHT22;39952;40.122;18.294;2022-09-03T15:41:33;30.00;45.50
54034;DHT22;39952;40.122;18.294;2022-09-03T15:44:44;30.10;45.90
54034;DHT22;39952;40.122;18.294;2022-09-03T15:47:55;29.80;48.50
54034;DHT22;39952;40.122;18.294;2022-09-03T15:51:15;29.90;47.20
54034;DHT22;39952;40.122;18.294;2022-09-03T15:54:31;29.80;45.70
54034;DHT22;39952;40.122;18.294;2022-09-03T15:57:48;29.80;46.00
54034;DHT22;39952;40.122;18.294;2022-09-03T16:01:00;29.60;46.40
54034;DHT22;39952;40.122;18.294;2022-09-03T16:04:21;29.80;46.10
54034;DHT22;39952;40.122;18.294;2022-09-03T16:07:43;30.10;45.90
54034;DHT22;39952;40.122;18.294;2022-09-03T16:10:58;30.20;45.70
54034;DHT22;39952;40.122;18.294;2022-09-03T16:14:13;30.10;46.00
54034;DHT22;39952;40.122;18.294;2022-09-03T16:17:27;30.00;46.30
54034;DHT22;39952;40.122;18.294;2022-09-03T16:20:39;30.10;46.20
54034;DHT22;39952;40.122;18.294;2022-09-03T16:23:52;29.80;46.80
54034;DHT22;39952;40.122;18.294;2022-09-03T16:27:06;29.70;47.50
54034;DHT22;39952;40.122;18.294;2022-09-03T16:30:27;29.70;47.80
54034;DHT22;39952;40.122;18.294;2022-09-03T16:33:43;29.80;47.90
54034;DHT22;39952;40.122;18.294;2022-09-03T16:36:57;29.60;47.90
54034;DHT22;39952;40.122;18.294;2022-09-03T16:40:15;29.50;47.80
54034;DHT22;39952;40.122;18.294;2022-09-03T16:43:32;29.50;47.30
54034;DHT22;39952;40.122;18.294;2022-09-03T16:46:52;29.50;46.80
54034;DHT22;39952;40.122;18.294;2022-09-03T16:50:13;29.60;46.50
54034;DHT22;39952;40.122;18.294;2022-09-03T16:53:34;29.60;46.00
54034;DHT22;39952;40.122;18.294;2022-09-03T16:57:00;29.40;46.40
54034;DHT22;39952;40.122;18.294;2022-09-03T17:00:12;29.50;46.30
54034;DHT22;39952;40.122;18.294;2022-09-03T17:03:49;29.40;46.10
54034;DHT22;39952;40.122;18.294;2022-09-03T17:07:11;29.30;46.00
54034;DHT22;39952;40.122;18.294;2022-09-03T17:10:32;29.10;46.70
54034;DHT22;39952;40.122;18.294;2022-09-03T17:13:56;29.10;46.20
54034;DHT22;39952;40.122;18.294;2022-09-03T17:17:11;29.10;46.20
54034;DHT22;39952;40.122;18.294;2022-09-03T17:20:37;28.90;45.80
54034;DHT22;39952;40.122;18.294;2022-09-03T17:27:30;28.70;46.30
54034;DHT22;39952;40.122;18.294;2022-09-03T17:30:42;28.70;46.70
54034;DHT22;39952;40.122;18.294;2022-09-03T17:34:00;28.70;46.70
54034;DHT22;39952;40.122;18.294;2022-09-03T17:37:20;28.60;47.10
54034;DHT22;39952;40.122;18.294;2022-09-03T17:40:36;28.40;47.70
54034;DHT22;39952;40.122;18.294;2022-09-03T17:43:55;28.40;48.30
54034;DHT22;39952;40.122;18.294;2022-09-03T17:47:24;28.50;48.50
54034;DHT22;39952;40.122;18.294;2022-09-03T17:50:45;28.60;48.30
54034;DHT22;39952;40.122;18.294;2022-09-03T17:54:03;28.80;48.70
54034;DHT22;39952;40.122;18.294;2022-09-03T17:57:16;28.80;49.60
54034;DHT22;39952;40.122;18.294;2022-09-03T18:00:32;28.90;49.90
54034;DHT22;39952;40.122;18.294;2022-09-03T18:03:46;29.10;50.50
54034;DHT22;39952;40.122;18.294;2022-09-03T18:07:04;29.10;50.90
54034;DHT22;39952;40.122;18.294;2022-09-03T18:10:25;29.40;50.80
54034;DHT22;39952;40.122;18.294;2022-09-03T18:13:45;29.30;52.30
54034;DHT22;39952;40.122;18.294;2022-09-03T18:17:03;28.70;54.30
54034;DHT22;39952;40.122;18.294;2022-09-03T18:20:12;28.50;55.00
54034;DHT22;39952;40.122;18.294;2022-09-03T18:23:45;28.80;54.30
54034;DHT22;39952;40.122;18.294;2022-09-03T18:27:15;29.10;53.10
54034;DHT22;39952;40.122;18.294;2022-09-03T18:30:40;29.20;53.50
54034;DHT22;39952;40.122;18.294;2022-09-03T18:34:06;29.20;53.80
54034;DHT22;39952;40.122;18.294;2022-09-03T18:37:31;28.90;54.50
54034;DHT22;39952;40.122;18.294;2022-09-03T18:41:02;28.60;55.60
54034;DHT22;39952;40.122;18.294;2022-09-03T18:44:38;28.70;55.10
54034;DHT22;39952;40.122;18.294;2022-09-03T18:48:29;28.60;55.60
54034;DHT22;39952;40.122;18.294;2022-09-03T18:52:03;28.50;56.30
54034;DHT22;39952;40.122;18.294;2022-09-03T18:55:40;28.20;57.80
54034;DHT22;39952;40.122;18.294;2022-09-03T18:59:18;28.30;58.00
54034;DHT22;39952;40.122;18.294;2022-09-03T19:03:01;28.00;59.20
54034;DHT22;39952;40.122;18.294;2022-09-03T19:06:32;27.80;59.80
54034;DHT22;39952;40.122;18.294;2022-09-03T19:10:03;27.60;60.70
54034;DHT22;39952;40.122;18.294;2022-09-03T19:13:33;27.50;61.20
54034;DHT22;39952;40.122;18.294;2022-09-03T19:17:05;27.50;61.30
54034;DHT22;39952;40.122;18.294;2022-09-03T19:20:38;28.00;59.70
54034;DHT22;39952;40.122;18.294;2022-09-03T19:24:04;27.90;59.80
54034;DHT22;39952;40.122;18.294;2022-09-03T19:27:32;27.80;60.20
54034;DHT22;39952;40.122;18.294;2022-09-03T19:31:16;27.90;59.80
54034;DHT22;39952;40.122;18.294;2022-09-03T19:34:51;27.90;59.60
54034;DHT22;39952;40.122;18.294;2022-09-03T19:38:39;27.90;59.30
54034;DHT22;39952;40.122;18.294;2022-09-03T19:42:12;28.00;58.80
54034;DHT22;39952;40.122;18.294;2022-09-03T19:45:49;27.90;59.30
54034;DHT22;39952;40.122;18.294;2022-09-03T19:49:24;27.80;60.10
54034;DHT22;39952;40.122;18.294;2022-09-03T19:52:58;28.10;59.30
54034;DHT22;39952;40.122;18.294;2022-09-03T19:56:27;28.00;59.60
54034;DHT22;39952;40.122;18.294;2022-09-03T19:59:51;27.80;60.00
54034;DHT22;39952;40.122;18.294;2022-09-03T20:03:18;28.00;59.50
54034;DHT22;39952;40.122;18.294;2022-09-03T20:06:44;28.30;58.40
54034;DHT22;39952;40.122;18.294;2022-09-03T20:10:12;28.20;58.70
54034;DHT22;39952;40.122;18.294;2022-09-03T20:13:29;28.10;58.90
54034;DHT22;39952;40.122;18.294;2022-09-03T20:17:06;27.90;59.70
54034;DHT22;39952;40.122;18.294;2022-09-03T20:20:20;28.00;59.40
54034;DHT22;39952;40.122;18.294;2022-09-03T20:23:33;28.30;58.60
54034;DHT22;39952;40.122;18.294;2022-09-03T20:26:47;28.30;58.40